Time;durP1;ratioP1;P1;durP2;ratioP2;P2;SDS_P1;SDS_P2;PMS_P1;PMS_P2;Temp;Humidity;BMP_temperature;BMP_pressure;BME280_temperature;BME280_humidity;BME280_pressure;Samples;Min_cycle;Max_cycle;Signal;HPM_P1;HPM_P2
2023/09/27 00:00:49;;;;;;;3.00;1.63;;;10.90;99.90;;;;;;5027311;28;20953;-63
2023/09/27 00:03:15;;;;;;;1.77;1.23;;;10.70;99.90;;;;;;5026956;28;20218;-63
2023/09/27 00:05:41;;;;;;;4.90;1.90;;;10.70;99.90;;;;;;5027170;28;20202;-64
2023/09/27 00:08:06;;;;;;;2.80;1.50;;;10.70;99.90;;;;;;5032266;28;20209;-64
2023/09/27 00:10:32;;;;;;;7.07;2.00;;;10.70;99.90;;;;;;5024985;28;20245;-63
2023/09/27 00:12:58;;;;;;;2.80;1.47;;;10.90;99.90;;;;;;5019885;28;20203;-64
2023/09/27 00:15:24;;;;;;;2.23;1.47;;;10.80;99.90;;;;;;5024002;28;20695;-63
2023/09/27 00:17:49;;;;;;;7.10;2.00;;;10.70;99.90;;;;;;5031039;28;20183;-63
2023/09/27 00:20:19;;;;;;;2.70;1.37;;;10.70;99.90;;;;;;5024247;28;20913;-63
2023/09/27 00:22:45;;;;;;;3.43;1.30;;;10.70;99.90;;;;;;5032913;28;20659;-63
2023/09/27 00:25:11;;;;;;;11.03;1.90;;;10.70;99.90;;;;;;5029535;28;20432;-63
2023/09/27 00:27:37;;;;;;;2.40;1.50;;;10.60;99.90;;;;;;5029878;28;20465;-63
2023/09/27 00:30:05;;;;;;;1.90;1.13;;;10.60;99.90;;;;;;5029640;28;20186;-63
2023/09/27 00:32:31;;;;;;;3.23;1.93;;;10.50;99.90;;;;;;5024264;28;20511;-64
2023/09/27 00:34:56;;;;;;;7.23;1.73;;;10.50;99.90;;;;;;5031364;28;20453;-63
2023/09/27 00:37:22;;;;;;;2.40;1.40;;;10.50;99.90;;;;;;5031664;28;20198;-63
2023/09/27 00:39:48;;;;;;;2.50;1.50;;;10.50;99.90;;;;;;5022268;28;20289;-63
2023/09/27 00:42:13;;;;;;;2.90;1.70;;;10.50;99.90;;;;;;5025216;28;20746;-63
2023/09/27 00:44:39;;;;;;;5.10;2.27;;;10.40;99.90;;;;;;5025992;28;20213;-63
2023/09/27 00:47:06;;;;;;;15.50;6.33;;;10.40;99.90;;;;;;5026120;28;20209;-64
2023/09/27 00:49:32;;;;;;;4.33;1.87;;;10.40;99.90;;;;;;5025509;28;20186;-63
2023/09/27 00:51:59;;;;;;;4.27;2.00;;;10.50;99.90;;;;;;5023596;28;20783;-63
2023/09/27 00:54:26;;;;;;;2.90;1.53;;;10.40;99.90;;;;;;5022513;28;20432;-63
2023/09/27 00:56:52;;;;;;;5.13;2.10;;;10.40;99.90;;;;;;5018013;28;20500;-63
2023/09/27 00:59:19;;;;;;;4.07;2.23;;;10.40;99.90;;;;;;5024091;28;20437;-63
2023/09/27 01:01:46;;;;;;;73.83;31.93;;;10.40;99.90;;;;;;5023099;28;20857;-64
2023/09/27 01:04:13;;;;;;;3.43;2.13;;;10.30;99.90;;;;;;5020138;28;20477;-63
2023/09/27 01:06:41;;;;;;;4.03;1.73;;;10.20;99.90;;;;;;5024832;28;20457;-63
2023/09/27 01:09:07;;;;;;;4.13;1.80;;;10.20;99.90;;;;;;5016082;28;20437;-63
2023/09/27 01:11:33;;;;;;;3.00;1.53;;;10.10;99.90;;;;;;5030077;28;20442;-64
2023/09/27 01:13:59;;;;;;;1.80;1.30;;;10.10;99.90;;;;;;5021055;28;20195;-63
2023/09/27 01:16:25;;;;;;;5.60;1.97;;;10.10;99.90;;;;;;5023800;28;20495;-64
2023/09/27 01:18:50;;;;;;;2.27;1.40;;;10.20;99.90;;;;;;5017230;28;20523;-64
2023/09/27 01:21:19;;;;;;;3.17;1.87;;;10.20;99.90;;;;;;5028106;28;20220;-64
2023/09/27 01:23:48;;;;;;;3.77;1.67;;;10.20;99.90;;;;;;5018321;28;20246;-63
2023/09/27 01:26:16;;;;;;;2.73;1.60;;;10.20;99.90;;;;;;5023719;28;20424;-63
2023/09/27 01:28:44;;;;;;;3.83;1.63;;;10.60;99.90;;;;;;5027929;28;20464;-63
2023/09/27 01:31:10;;;;;;;3.30;1.83;;;10.20;99.90;;;;;;5025640;28;20429;-63
2023/09/27 01:33:35;;;;;;;3.77;1.97;;;10.20;99.90;;;;;;5025651;28;20468;-63
2023/09/27 01:36:02;;;;;;;3.17;1.60;;;10.10;99.90;;;;;;5024272;28;20560;-63
2023/09/27 01:38:28;;;;;;;3.60;1.73;;;10.10;99.90;;;;;;5024430;28;20294;-63
2023/09/27 01:40:54;;;;;;;9.80;2.30;;;10.10;99.90;;;;;;5024538;28;20448;-63
2023/09/27 01:43:20;;;;;;;2.93;1.63;;;10.10;99.90;;;;;;5030016;28;20210;-63
2023/09/27 01:45:45;;;;;;;3.77;2.17;;;10.10;99.90;;;;;;5025964;28;20328;-63
2023/09/27 01:48:11;;;;;;;3.40;2.10;;;10.10;99.90;;;;;;5024320;28;20194;-63
2023/09/27 01:50:37;;;;;;;5.60;1.90;;;10.10;99.90;;;;;;5025654;28;20620;-63
2023/09/27 01:53:04;;;;;;;2.40;1.80;;;10.10;99.90;;;;;;5019948;28;20186;-63
2023/09/27 01:55:29;;;;;;;2.40;2.03;;;10.00;99.90;;;;;;5015764;28;20445;-63
2023/09/27 01:57:56;;;;;;;3.47;2.00;;;10.00;99.90;;;;;;5029091;28;20448;-63
2023/09/27 02:00:22;;;;;;;2.47;1.60;;;10.00;99.90;;;;;;5024149;28;20248;-63
2023/09/27 02:02:48;;;;;;;2.77;1.67;;;10.00;99.90;;;;;;5026445;28;20516;-63
2023/09/27 02:05:14;;;;;;;3.30;1.87;;;10.00;99.90;;;;;;5025127;28;20190;-64
2023/09/27 02:07:40;;;;;;;4.33;1.93;;;9.90;99.90;;;;;;5020208;28;20520;-64
2023/09/27 02:10:09;;;;;;;3.00;2.00;;;9.70;99.90;;;;;;5025940;28;20300;-64
2023/09/27 02:12:36;;;;;;;3.13;1.47;;;9.70;99.90;;;;;;5019782;28;20671;-64
2023/09/27 02:15:04;;;;;;;3.97;1.83;;;9.70;99.90;;;;;;5028468;28;20469;-63
2023/09/27 02:17:29;;;;;;;2.33;1.53;;;9.80;99.90;;;;;;5026950;28;20433;-64
2023/09/27 02:19:55;;;;;;;3.07;2.00;;;9.80;99.90;;;;;;5025906;28;20997;-64
2023/09/27 02:22:21;;;;;;;2.43;1.70;;;9.80;99.90;;;;;;5024902;28;20205;-64
2023/09/27 02:24:47;;;;;;;3.67;2.00;;;9.80;99.90;;;;;;5025662;28;20604;-64
2023/09/27 02:27:14;;;;;;;4.37;1.90;;;9.90;99.90;;;;;;5028471;28;20666;-63
2023/09/27 02:29:43;;;;;;;4.87;1.53;;;9.90;99.90;;;;;;5019266;28;20440;-64
2023/09/27 02:32:08;;;;;;;2.50;1.83;;;9.80;99.90;;;;;;5027728;28;20445;-64
2023/09/27 02:34:35;;;;;;;4.47;1.70;;;9.80;99.90;;;;;;5020778;28;20442;-64
2023/09/27 02:37:00;;;;;;;4.67;1.63;;;9.80;99.90;;;;;;5022016;28;20218;-64
2023/09/27 02:39:26;;;;;;;4.40;1.83;;;9.70;99.90;;;;;;5017814;28;20465;-64
2023/09/27 02:41:52;;;;;;;5.93;2.20;;;9.70;99.90;;;;;;5023977;28;20259;-64
2023/09/27 02:44:18;;;;;;;3.57;2.30;;;9.70;99.90;;;;;;5015721;28;20187;-64
2023/09/27 02:46:44;;;;;;;4.97;2.30;;;9.80;99.90;;;;;;5023091;28;20190;-64
2023/09/27 02:49:10;;;;;;;3.83;2.07;;;9.80;99.90;;;;;;5026239;28;20198;-64
2023/09/27 02:51:36;;;;;;;5.07;2.10;;;9.80;99.90;;;;;;5021145;28;20453;-64
2023/09/27 02:54:02;;;;;;;3.57;2.40;;;9.70;99.90;;;;;;5022108;28;20449;-64
2023/09/27 02:56:28;;;;;;;2.80;1.80;;;9.60;99.90;;;;;;5026130;28;20453;-64
2023/09/27 02:58:53;;;;;;;3.10;1.60;;;9.60;99.90;;;;;;5026596;28;20187;-64
2023/09/27 03:01:19;;;;;;;8.60;2.17;;;9.70;99.90;;;;;;5025910;28;20611;-64
2023/09/27 03:03:44;;;;;;;2.73;1.90;;;9.70;99.90;;;;;;5026560;28;20292;-64
2023/09/27 03:06:14;;;;;;;3.20;2.10;;;9.60;99.90;;;;;;5025432;28;20187;-64
2023/09/27 03:08:43;;;;;;;5.50;2.20;;;9.60;99.90;;;;;;5019108;28;20206;-64
2023/09/27 03:11:09;;;;;;;4.00;2.23;;;9.60;99.90;;;;;;5022541;28;20425;-64
2023/09/27 03:13:36;;;;;;;2.40;1.80;;;9.60;99.90;;;;;;5019170;28;20511;-64
2023/09/27 03:16:04;;;;;;;4.00;2.70;;;9.50;99.90;;;;;;5023450;28;20424;-64
2023/09/27 03:18:32;;;;;;;7.17;2.93;;;9.50;99.90;;;;;;5019986;28;20906;-64
2023/09/27 03:20:59;;;;;;;8.03;2.60;;;9.50;99.90;;;;;;5026978;28;20425;-63
2023/09/27 03:23:28;;;;;;;3.47;2.33;;;9.50;99.90;;;;;;5016134;28;20678;-64
2023/09/27 03:25:55;;;;;;;7.03;2.80;;;9.50;99.90;;;;;;5024155;28;20417;-64
2023/09/27 03:28:21;;;;;;;4.20;2.50;;;9.50;99.90;;;;;;5022989;28;20976;-63
2023/09/27 03:30:47;;;;;;;3.63;2.43;;;9.60;99.90;;;;;;5018095;28;20445;-64
2023/09/27 03:33:13;;;;;;;5.10;2.77;;;9.60;99.90;;;;;;5032872;28;20468;-64
2023/09/27 03:35:39;;;;;;;8.20;2.97;;;9.70;99.90;;;;;;5029001;28;20186;-64
2023/09/27 03:38:05;;;;;;;5.67;3.30;;;9.70;99.90;;;;;;5027037;28;20471;-64
2023/09/27 03:40:31;;;;;;;7.27;2.53;;;9.70;99.90;;;;;;5026628;28;20179;-64
2023/09/27 03:42:57;;;;;;;7.80;3.20;;;9.80;99.90;;;;;;5030327;28;20571;-64
2023/09/27 03:45:23;;;;;;;5.50;2.77;;;9.80;99.90;;;;;;5027086;28;20856;-64
2023/09/27 03:47:48;;;;;;;5.20;2.77;;;9.80;99.90;;;;;;5032329;28;20183;-64
2023/09/27 03:50:14;;;;;;;4.40;2.60;;;9.70;99.90;;;;;;5027862;28;20206;-64
2023/09/27 03:52:43;;;;;;;6.13;3.17;;;9.70;99.90;;;;;;5023263;28;20183;-64
2023/09/27 03:55:10;;;;;;;9.03;3.20;;;9.90;99.90;;;;;;5022558;28;20198;-64
2023/09/27 03:57:35;;;;;;;5.57;3.03;;;9.60;99.90;;;;;;5028990;28;20464;-64
2023/09/27 04:00:06;;;;;;;6.13;3.00;;;9.70;99.90;;;;;;5029758;28;20921;-64
2023/09/27 04:02:32;;;;;;;6.77;3.20;;;9.60;99.90;;;;;;5025429;28;20228;-64
2023/09/27 04:04:58;;;;;;;4.30;2.60;;;9.50;99.90;;;;;;5030687;28;20421;-64
2023/09/27 04:07:24;;;;;;;3.43;2.00;;;9.50;99.90;;;;;;5022755;28;20195;-64
2023/09/27 04:09:50;;;;;;;4.43;2.20;;;9.50;99.90;;;;;;5023260;28;20479;-64
2023/09/27 04:12:15;;;;;;;4.60;2.00;;;9.40;99.90;;;;;;5028247;28;20182;-64
2023/09/27 04:14:41;;;;;;;5.47;3.10;;;9.40;99.90;;;;;;5023519;28;20646;-64
2023/09/27 04:17:07;;;;;;;4.10;2.67;;;;;;;;;;5025422;28;20281;-64
2023/09/27 04:19:33;;;;;;;4.90;2.20;;;9.40;99.90;;;;;;5026966;28;20202;-64
2023/09/27 04:21:59;;;;;;;3.77;2.83;;;9.30;99.90;;;;;;5030383;28;20905;-63
2023/09/27 04:24:25;;;;;;;3.17;2.27;;;9.30;99.90;;;;;;5026537;28;20190;-64
2023/09/27 04:26:51;;;;;;;4.00;2.60;;;;;;;;;;5026663;28;20310;-64
2023/09/27 04:29:17;;;;;;;6.17;3.40;;;;;;;;;;5024843;28;20444;-64
2023/09/27 04:31:43;;;;;;;3.53;2.37;;;;;;;;;;5027294;28;20411;-63
2023/09/27 04:34:09;;;;;;;4.23;2.50;;;9.10;99.90;;;;;;5027635;28;20445;-64
2023/09/27 04:36:35;;;;;;;5.33;2.70;;;;;;;;;;5026041;28;20975;-64
2023/09/27 04:39:01;;;;;;;7.30;2.60;;;;;;;;;;5018865;28;20525;-64
2023/09/27 04:41:28;;;;;;;4.67;2.70;;;;;;;;;;5031154;28;20523;-64
2023/09/27 04:43:53;;;;;;;7.50;2.60;;;9.10;99.90;;;;;;5022249;28;20465;-64
2023/09/27 04:46:19;;;;;;;4.40;2.87;;;;;;;;;;5026285;28;20952;-64
2023/09/27 04:48:46;;;;;;;5.20;2.33;;;;;;;;;;5024448;28;20190;-63
2023/09/27 04:51:12;;;;;;;4.33;2.13;;;;;;;;;;5025526;28;20509;-64
2023/09/27 04:53:38;;;;;;;3.50;2.17;;;;;;;;;;5030000;28;20985;-64
2023/09/27 04:56:06;;;;;;;3.40;2.70;;;9.20;99.90;;;;;;5028340;28;20452;-65
2023/09/27 04:58:32;;;;;;;3.83;2.67;;;;;;;;;;5030492;28;20417;-65
2023/09/27 05:00:57;;;;;;;5.83;2.60;;;9.10;99.90;;;;;;5027022;28;20428;-65
2023/09/27 05:03:23;;;;;;;3.40;2.57;;;9.20;99.90;;;;;;5031842;28;20837;-65
2023/09/27 05:05:48;;;;;;;3.90;2.70;;;9.00;99.90;;;;;;5027611;28;20183;-65
2023/09/27 05:08:14;;;;;;;6.50;2.97;;;9.00;99.90;;;;;;5031759;28;20193;-65
2023/09/27 05:10:40;;;;;;;5.03;2.63;;;9.10;99.90;;;;;;5027028;28;20190;-65
2023/09/27 05:13:05;;;;;;;4.37;2.53;;;9.00;99.90;;;;;;5031475;28;20206;-65
2023/09/27 05:15:34;;;;;;;6.50;3.03;;;9.10;99.90;;;;;;5027099;28;20190;-65
2023/09/27 05:17:59;;;;;;;6.93;3.63;;;9.10;99.90;;;;;;5025010;28;20559;-65
2023/09/27 05:20:25;;;;;;;3.30;2.50;;;9.10;99.90;;;;;;5025291;28;20527;-65
2023/09/27 05:22:51;;;;;;;5.37;2.80;;;9.00;99.90;;;;;;5030724;28;20207;-65
2023/09/27 05:25:17;;;;;;;3.97;3.00;;;9.00;99.90;;;;;;5026447;28;20274;-67
2023/09/27 05:27:43;;;;;;;4.10;2.47;;;8.90;99.90;;;;;;5031390;28;20424;-65
2023/09/27 05:30:12;;;;;;;4.77;2.53;;;8.90;99.90;;;;;;5024071;28;20194;-65
2023/09/27 05:32:37;;;;;;;4.53;2.80;;;9.00;99.90;;;;;;5020240;28;20182;-65
2023/09/27 05:35:04;;;;;;;4.50;2.80;;;9.10;99.90;;;;;;5025887;28;20456;-65
2023/09/27 05:37:31;;;;;;;6.97;3.10;;;9.00;99.90;;;;;;5030864;28;20269;-66
2023/09/27 05:39:57;;;;;;;5.33;2.57;;;9.10;99.90;;;;;;5026722;28;20425;-65
2023/09/27 05:42:23;;;;;;;12.13;4.13;;;9.20;99.90;;;;;;5018974;28;20477;-67
2023/09/27 05:44:49;;;;;;;8.23;3.60;;;9.20;99.90;;;;;;5025204;28;20272;-65
2023/09/27 05:47:15;;;;;;;13.70;3.80;;;9.10;99.90;;;;;;5030732;28;20698;-65
2023/09/27 05:49:41;;;;;;;6.43;3.13;;;9.30;99.90;;;;;;5027354;28;20190;-65
2023/09/27 05:52:11;;;;;;;4.70;3.10;;;9.30;99.90;;;;;;5031068;28;20429;-66
2023/09/27 05:54:38;;;;;;;4.50;2.90;;;9.30;99.90;;;;;;5028149;28;20531;-66
2023/09/27 05:57:07;;;;;;;5.87;3.00;;;10.30;99.90;;;;;;5030839;28;20449;-65
2023/09/27 05:59:40;;;;;;;3.87;3.10;;;9.40;99.90;;;;;;5022318;28;20437;-65
2023/09/27 06:02:06;;;;;;;5.30;2.90;;;9.50;99.90;;;;;;5023070;28;20433;-65
2023/09/27 06:04:32;;;;;;;5.77;3.37;;;10.50;99.90;;;;;;5022745;28;20909;-65
2023/09/27 06:06:58;;;;;;;4.30;2.77;;;9.50;99.90;;;;;;5030992;28;20421;-65
2023/09/27 06:09:24;;;;;;;5.20;2.87;;;9.50;99.90;;;;;;5021229;28;20804;-66
2023/09/27 06:11:50;;;;;;;8.30;2.83;;;10.70;99.90;;;;;;5023374;28;20269;-66
2023/09/27 06:14:16;;;;;;;5.80;3.40;;;9.70;99.90;;;;;;5027701;28;20519;-65
2023/09/27 06:16:44;;;;;;;4.47;2.97;;;9.70;99.90;;;;;;5026330;28;20225;-65
2023/09/27 06:19:11;;;;;;;11.20;3.10;;;10.40;99.90;;;;;;5023324;28;20171;-66
2023/09/27 06:21:39;;;;;;;5.43;2.67;;;10.00;99.90;;;;;;5025604;28;21004;-66
2023/09/27 06:24:05;;;;;;;4.50;3.37;;;10.10;99.90;;;;;;5021489;28;20469;-66
2023/09/27 06:26:31;;;;;;;6.90;3.53;;;10.20;99.90;;;;;;5025370;28;20820;-66
2023/09/27 06:28:58;;;;;;;8.03;3.70;;;10.30;99.90;;;;;;5021069;28;20433;-66
2023/09/27 06:31:23;;;;;;;9.97;3.90;;;10.40;99.90;;;;;;5028910;28;20198;-66
2023/09/27 06:33:49;;;;;;;8.20;3.77;;;10.50;99.90;;;;;;5029188;28;20452;-66
2023/09/27 06:36:16;;;;;;;5.87;3.60;;;10.90;99.90;;;;;;5028857;28;20190;-66
2023/09/27 06:38:41;;;;;;;6.17;3.17;;;10.70;99.90;;;;;;5028898;28;20197;-66
2023/09/27 06:41:08;;;;;;;6.13;2.90;;;11.70;99.90;;;;;;5025592;28;20458;-66
2023/09/27 06:43:34;;;;;;;12.53;3.43;;;10.90;99.90;;;;;;5029067;28;20848;-66
2023/09/27 06:46:07;;;;;;;5.53;2.60;;;11.00;99.90;;;;;;5027773;28;20424;-66
2023/09/27 06:48:33;;;;;;;6.87;3.60;;;11.10;99.90;;;;;;5020720;28;20242;-66
2023/09/27 06:50:58;;;;;;;12.90;4.50;;;11.10;99.90;;;;;;5022212;28;20473;-66
2023/09/27 06:53:24;;;;;;;5.37;2.93;;;11.20;99.90;;;;;;5026109;28;20208;-66
2023/09/27 06:55:53;;;;;;;8.53;3.17;;;11.20;99.90;;;;;;5022437;28;20813;-66
2023/09/27 06:58:23;;;;;;;6.67;3.20;;;11.50;99.90;;;;;;5024279;28;20186;-66
2023/09/27 07:00:50;;;;;;;4.03;2.90;;;11.60;99.90;;;;;;5022332;28;21022;-66
2023/09/27 07:03:16;;;;;;;3.90;2.10;;;11.80;99.90;;;;;;5023117;28;20473;-66
2023/09/27 07:05:41;;;;;;;4.40;2.67;;;11.90;99.90;;;;;;5024417;28;20438;-66
2023/09/27 07:08:07;;;;;;;8.07;3.23;;;12.10;99.90;;;;;;5033377;28;20281;-66
2023/09/27 07:10:34;;;;;;;6.23;2.90;;;12.30;99.90;;;;;;5027348;28;20194;-66
2023/09/27 07:13:00;;;;;;;5.50;2.87;;;12.40;99.90;;;;;;5029387;28;20190;-66
2023/09/27 07:15:25;;;;;;;5.20;2.67;;;12.60;99.90;;;;;;5026932;28;20445;-66
2023/09/27 07:17:51;;;;;;;5.30;2.93;;;13.10;99.90;;;;;;5026033;28;20432;-66
2023/09/27 07:20:24;;;;;;;3.90;2.13;;;13.20;99.90;;;;;;5031999;28;20348;-66
2023/09/27 07:22:50;;;;;;;5.60;2.50;;;;;;;;;;5029734;28;20218;-66
2023/09/27 07:25:17;;;;;;;7.57;3.03;;;14.30;99.90;;;;;;5029814;28;20429;-64
2023/09/27 07:27:43;;;;;;;4.07;2.33;;;14.90;99.90;;;;;;5023021;28;20422;-64
2023/09/27 07:30:17;;;;;;;3.90;2.10;;;14.90;99.90;;;;;;5028504;28;20479;-64
2023/09/27 07:32:47;;;;;;;5.23;1.80;;;15.50;99.90;;;;;;5027642;28;20526;-64
2023/09/27 07:35:16;;;;;;;5.20;2.17;;;16.20;99.90;;;;;;5028581;28;20532;-64
2023/09/27 07:37:42;;;;;;;6.13;2.40;;;16.90;99.90;;;;;;5028425;28;20436;-64
2023/09/27 07:40:13;;;;;;;4.83;2.13;;;17.50;99.90;;;;;;5028588;28;20512;-64
2023/09/27 07:42:43;;;;;;;4.00;1.83;;;18.10;99.90;;;;;;5030376;28;20203;-64
2023/09/27 07:45:25;;;;;;;5.20;2.30;;;18.50;99.90;;;;;;5026904;28;20469;-64
2023/09/27 07:47:52;;;;;;;5.10;2.17;;;18.90;99.90;;;;;;5033221;28;20424;-64
2023/09/27 07:50:22;;;;;;;3.80;2.20;;;19.80;99.90;;;;;;5028866;28;20427;-64
2023/09/27 07:52:47;;;;;;;3.03;2.00;;;20.30;99.90;;;;;;5031912;28;20452;-64
2023/09/27 07:55:14;;;;;;;1388.30;119.77;;;20.80;99.90;;;;;;5027181;28;20832;-64
2023/09/27 07:57:44;;;;;;;3.13;1.80;;;21.00;99.60;;;;;;5028561;28;20296;-64
2023/09/27 08:00:10;;;;;;;114.53;30.70;;;21.30;98.30;;;;;;5027398;28;20476;-64
2023/09/27 08:02:38;;;;;;;7.80;2.37;;;21.40;98.90;;;;;;5028176;28;20500;-64
2023/09/27 08:05:09;;;;;;;2.90;1.80;;;21.20;98.80;;;;;;5027273;28;20441;-64
2023/09/27 08:07:38;;;;;;;3.30;1.80;;;21.20;98.10;;;;;;5026219;28;20499;-64
2023/09/27 08:10:06;;;;;;;4.03;2.00;;;20.90;99.30;;;;;;5026801;28;20417;-64
2023/09/27 08:12:33;;;;;;;5.47;2.03;;;21.00;99.20;;;;;;5027671;28;20815;-64
2023/09/27 08:15:03;;;;;;;4.73;1.60;;;20.80;97.90;;;;;;5026941;28;20768;-64
2023/09/27 08:17:30;;;;;;;3.17;1.87;;;20.60;98.60;;;;;;5027327;28;20555;-64
2023/09/27 08:19:56;;;;;;;4.00;1.83;;;20.50;99.00;;;;;;5026630;28;20421;-65
2023/09/27 08:22:21;;;;;;;11.03;2.67;;;20.50;99.30;;;;;;5030390;28;20479;-64
2023/09/27 08:24:47;;;;;;;5.13;1.80;;;20.40;98.60;;;;;;5030657;28;20174;-64
2023/09/27 08:27:12;;;;;;;5.03;2.30;;;20.30;99.50;;;;;;5031110;28;20216;-64
2023/09/27 08:29:38;;;;;;;4.27;2.23;;;20.30;99.30;;;;;;5028044;28;20202;-64
2023/09/27 08:32:06;;;;;;;3.43;1.70;;;20.50;99.40;;;;;;5031993;28;20190;-64
2023/09/27 08:34:32;;;;;;;3.53;1.80;;;20.40;99.30;;;;;;5025564;28;20202;-64
2023/09/27 08:36:59;;;;;;;5.13;1.90;;;20.70;99.70;;;;;;5031885;28;20413;-64
2023/09/27 08:39:26;;;;;;;4.60;2.50;;;20.90;99.20;;;;;;5026821;28;20512;-64
2023/09/27 08:41:54;;;;;;;9.57;3.00;;;21.10;98.90;;;;;;5030726;28;20421;-64
2023/09/27 08:44:22;;;;;;;4.33;2.63;;;21.10;98.70;;;;;;5024394;28;20696;-64
2023/09/27 08:46:48;;;;;;;3.00;1.83;;;21.00;99.10;;;;;;5030572;28;20500;-64
2023/09/27 08:49:15;;;;;;;2.73;1.43;;;20.90;99.00;;;;;;5027872;28;20520;-64
2023/09/27 08:51:43;;;;;;;4.60;1.90;;;21.10;99.40;;;;;;5026154;28;20442;-64
2023/09/27 08:54:12;;;;;;;3.30;1.67;;;21.20;99.40;;;;;;5024335;28;20519;-64
2023/09/27 08:56:38;;;;;;;3.83;1.90;;;21.40;99.20;;;;;;5028239;28;20457;-64
2023/09/27 08:59:04;;;;;;;4.30;2.10;;;21.40;99.20;;;;;;5025172;28;20432;-64
2023/09/27 09:01:33;;;;;;;4.40;1.73;;;21.40;99.00;;;;;;5028440;28;20319;-64
2023/09/27 09:04:00;;;;;;;5.63;2.37;;;21.50;99.30;;;;;;5022237;28;20825;-64
2023/09/27 09:06:27;;;;;;;2.40;1.43;;;21.40;99.80;;;;;;5025822;28;20483;-64
2023/09/27 09:08:52;;;;;;;4.07;2.27;;;21.40;99.60;;;;;;5022580;28;20464;-64
2023/09/27 09:11:22;;;;;;;10.03;2.63;;;22.00;97.90;;;;;;5027987;28;20527;-64
2023/09/27 09:14:04;;;;;;;4.43;2.47;;;22.60;98.10;;;;;;5020996;28;20198;-64
2023/09/27 09:16:39;;;;;;;2.90;1.80;;;22.90;97.20;;;;;;5027733;28;20443;-64
2023/09/27 09:19:24;;;;;;;2.27;1.43;;;22.90;97.40;;;;;;5028409;28;20539;-65
2023/09/27 09:22:03;;;;;;;6.87;1.80;;;23.10;96.60;;;;;;5026438;28;20206;-64
2023/09/27 09:24:29;;;;;;;3.58;1.42;;;22.90;96.20;;;;;;5019551;28;20988;-64
2023/09/27 09:27:08;;;;;;;3.95;2.03;;;23.10;96.10;;;;;;5027472;28;20177;-64
2023/09/27 09:29:43;;;;;;;3.27;1.90;;;23.20;95.80;;;;;;5020004;28;20174;-64
2023/09/27 09:32:08;;;;;;;3.63;1.63;;;22.90;95.70;;;;;;5025056;28;20212;-64
2023/09/27 09:34:43;;;;;;;3.87;1.77;;;22.10;96.20;;;;;;5027370;28;20228;-64
2023/09/27 09:37:33;;;;;;;2.60;1.50;;;21.90;96.50;;;;;;5027778;28;20239;-64
2023/09/27 09:40:16;;;;;;;4.03;1.80;;;21.80;97.20;;;;;;5027029;28;20495;-64
2023/09/27 09:42:43;;;;;;;2.50;1.60;;;21.70;97.40;;;;;;5031092;28;20456;-63
2023/09/27 09:45:12;;;;;;;2.00;1.33;;;21.30;97.70;;;;;;5028347;28;20682;-64
2023/09/27 09:47:39;;;;;;;2.50;1.30;;;21.30;98.30;;;;;;5030962;28;20456;-64
2023/09/27 09:50:07;;;;;;;3.23;1.53;;;21.10;98.40;;;;;;5026995;28;20432;-63
2023/09/27 09:52:38;;;;;;;2.60;1.80;;;21.10;98.80;;;;;;5026550;28;20448;-64
2023/09/27 09:55:06;;;;;;;3.23;1.80;;;21.10;98.80;;;;;;5023667;28;20454;-64
2023/09/27 09:57:35;;;;;;;2.23;1.37;;;21.10;98.20;;;;;;5023605;28;21272;-64
2023/09/27 10:00:11;;;;;;;4.53;1.57;;;21.10;98.60;;;;;;5020458;28;20436;-64
2023/09/27 10:02:46;;;;;;;3.10;1.80;;;21.30;97.40;;;;;;5025915;28;20563;-63
2023/09/27 10:05:14;;;;;;;3.07;1.43;;;21.10;99.10;;;;;;5023448;28;20491;-63
2023/09/27 10:07:42;;;;;;;2.47;1.13;;;21.30;97.70;;;;;;5026365;28;20425;-64
2023/09/27 10:10:14;;;;;;;2.07;1.47;;;21.30;98.10;;;;;;5025240;28;20424;-63
2023/09/27 10:12:44;;;;;;;2.80;1.57;;;21.20;97.50;;;;;;5024375;28;20788;-64
2023/09/27 10:15:11;;;;;;;4.50;1.77;;;21.30;98.00;;;;;;5025510;28;20520;-64
2023/09/27 10:17:37;;;;;;;4.90;1.43;;;21.40;96.90;;;;;;5028426;28;20947;-63
2023/09/27 10:20:09;;;;;;;3.77;1.77;;;21.50;97.30;;;;;;5026831;28;20478;-64
2023/09/27 10:22:34;;;;;;;5.87;2.03;;;21.60;96.50;;;;;;5023429;28;20225;-64
2023/09/27 10:25:00;;;;;;;3.23;1.70;;;21.60;97.30;;;;;;5023219;28;20464;-64
2023/09/27 10:28:12;;;;;;;1.83;1.03;;;21.60;96.90;;;;;;5026771;28;20189;-63
2023/09/27 10:30:40;;;;;;;4.00;1.00;;;21.70;96.50;;;;;;5023288;28;20182;-63
2023/09/27 10:33:26;;;;;;;4.80;1.80;;;21.80;96.70;;;;;;5029127;28;20421;-64
2023/09/27 10:36:03;;;;;;;4.50;2.03;;;22.00;96.20;;;;;;5017565;28;20451;-64
2023/09/27 10:38:44;;;;;;;3.33;1.40;;;22.10;95.90;;;;;;5021566;28;21214;-63
2023/09/27 10:41:34;;;;;;;1.97;1.17;;;22.20;96.20;;;;;;5028373;28;20442;-64
2023/09/27 10:44:05;;;;;;;5.30;1.77;;;22.40;96.10;;;;;;5025338;28;20867;-63
2023/09/27 10:46:43;;;;;;;10.30;2.03;;;22.40;95.80;;;;;;5028037;28;20900;-63
2023/09/27 10:49:09;;;;;;;2.77;1.40;;;22.20;96.60;;;;;;5026731;28;20821;-63
2023/09/27 10:51:35;;;;;;;3.23;1.43;;;22.50;95.80;;;;;;5022728;28;20436;-63
2023/09/27 10:54:08;;;;;;;2.13;1.30;;;22.60;95.90;;;;;;5024907;28;20182;-63
2023/09/27 10:56:34;;;;;;;3.50;1.60;;;22.80;95.50;;;;;;5028581;28;20452;-63
2023/09/27 10:59:00;;;;;;;2.23;1.30;;;22.80;94.40;;;;;;5024786;28;20812;-63
2023/09/27 11:01:25;;;;;;;2.60;1.30;;;22.90;94.10;;;;;;5025125;28;20877;-63
2023/09/27 11:04:02;;;;;;;4.23;1.50;;;22.70;95.20;;;;;;5023640;28;20480;-66
2023/09/27 11:06:29;;;;;;;2.57;1.30;;;22.80;94.30;;;;;;5029110;28;20228;-65
2023/09/27 11:09:08;;;;;;;2.57;1.50;;;22.80;94.40;;;;;;5028864;28;20420;-66
2023/09/27 11:11:34;;;;;;;2.10;1.50;;;23.10;94.40;;;;;;5028534;28;20458;-66
2023/09/27 11:14:00;;;;;;;2.13;1.20;;;23.10;94.70;;;;;;5025233;28;20444;-63
2023/09/27 11:16:26;;;;;;;2.93;1.53;;;23.20;94.60;;;;;;5022243;28;20436;-63
2023/09/27 11:18:52;;;;;;;3.23;1.17;;;23.30;93.40;;;;;;5027829;28;20575;-63
2023/09/27 11:21:19;;;;;;;2.40;1.37;;;23.40;94.70;;;;;;5029129;28;21214;-63
2023/09/27 11:23:53;;;;;;;1.83;1.07;;;23.60;94.50;;;;;;5023939;28;22966;-63
2023/09/27 11:26:22;;;;;;;7.90;1.77;;;23.80;93.50;;;;;;5026788;28;20419;-63
2023/09/27 11:28:59;;;;;;;5.20;1.53;;;24.00;93.80;;;;;;5022182;28;20484;-63
2023/09/27 11:31:32;;;;;;;2.97;1.17;;;24.20;92.10;;;;;;5025166;28;20858;-63
2023/09/27 11:34:15;;;;;;;3.77;1.17;;;24.30;91.70;;;;;;5023475;28;20448;-63
2023/09/27 11:36:47;;;;;;;2.30;1.13;;;24.20;91.70;;;;;;5028835;28;20475;-63
2023/09/27 11:39:14;;;;;;;2.80;0.97;;;24.40;90.90;;;;;;5021425;28;20536;-63
2023/09/27 11:41:40;;;;;;;2.07;1.03;;;24.20;91.80;;;;;;5022854;28;20441;-63
2023/09/27 11:44:16;;;;;;;2.33;1.03;;;24.10;91.30;;;;;;5018519;28;20463;-63
2023/09/27 11:46:42;;;;;;;4.10;1.53;;;24.30;90.80;;;;;;5024372;28;20455;-63
2023/09/27 11:49:08;;;;;;;3.17;1.43;;;24.30;91.00;;;;;;5024715;28;20428;-63
2023/09/27 11:51:35;;;;;;;2.53;1.40;;;24.00;91.40;;;;;;5021511;28;20428;-63
2023/09/27 11:54:02;;;;;;;2.43;1.00;;;24.30;91.70;;;;;;5023020;28;20190;-63
2023/09/27 11:56:27;;;;;;;1.67;0.83;;;24.60;90.90;;;;;;5032896;28;20444;-63
2023/09/27 11:58:53;;;;;;;2.17;1.30;;;24.80;90.40;;;;;;5025786;28;20451;-63
2023/09/27 12:01:19;;;;;;;2.67;0.90;;;24.80;90.30;;;;;;5028291;28;20304;-63
2023/09/27 12:03:45;;;;;;;3.17;1.50;;;25.00;90.10;;;;;;5026198;28;20296;-63
2023/09/27 12:06:11;;;;;;;2.93;1.20;;;25.00;90.50;;;;;;5028852;28;20593;-63
2023/09/27 12:08:36;;;;;;;2.07;1.07;;;25.10;90.20;;;;;;5021339;28;20185;-63
2023/09/27 12:11:03;;;;;;;1.90;1.07;;;25.40;90.10;;;;;;5031074;28;20181;-63
2023/09/27 12:13:29;;;;;;;2.77;1.53;;;25.10;87.90;;;;;;5029422;28;20280;-63
2023/09/27 12:15:54;;;;;;;2.60;1.00;;;25.30;88.50;;;;;;5028554;28;20424;-64
2023/09/27 12:18:20;;;;;;;3.03;1.20;;;25.40;88.10;;;;;;5024403;28;20209;-63
2023/09/27 12:20:47;;;;;;;3.10;1.20;;;25.10;89.00;;;;;;5027545;28;20608;-63
2023/09/27 12:23:13;;;;;;;1.80;0.77;;;25.10;88.30;;;;;;5025878;28;20202;-63
2023/09/27 12:25:39;;;;;;;2.97;1.20;;;25.10;89.60;;;;;;5026989;28;20503;-63
2023/09/27 12:28:05;;;;;;;5.13;1.10;;;25.40;88.20;;;;;;5033038;28;20508;-63
2023/09/27 12:30:30;;;;;;;1.70;1.00;;;25.40;86.40;;;;;;5022390;28;20586;-63
2023/09/27 12:32:56;;;;;;;2.87;1.20;;;25.30;88.00;;;;;;5032746;28;20610;-63
2023/09/27 12:35:22;;;;;;;2.10;1.27;;;25.00;88.60;;;;;;5027528;28;20174;-63
2023/09/27 12:37:48;;;;;;;3.10;1.40;;;25.20;89.80;;;;;;5031793;28;20177;-63
2023/09/27 12:40:14;;;;;;;2.67;1.23;;;25.00;87.00;;;;;;5029003;28;20269;-63
2023/09/27 12:42:40;;;;;;;3.73;1.20;;;25.00;87.80;;;;;;5031650;28;20328;-63
2023/09/27 12:45:07;;;;;;;8.40;1.23;;;25.40;86.80;;;;;;5026066;28;20260;-63
2023/09/27 12:47:33;;;;;;;2.77;1.60;;;25.30;85.80;;;;;;5030214;28;20182;-63
2023/09/27 12:50:03;;;;;;;2.97;1.23;;;25.80;85.10;;;;;;5025590;28;20367;-63
2023/09/27 12:52:28;;;;;;;2.20;1.10;;;25.90;84.80;;;;;;5032009;28;20182;-63
2023/09/27 12:54:54;;;;;;;4.17;1.40;;;26.10;85.00;;;;;;5026648;28;20799;-63